createdAt,value
2016-09-25T00:00:21.638Z,-46
2016-09-25T00:01:21.629Z,-48
2016-09-25T00:02:21.680Z,-48
2016-09-25T00:03:21.669Z,-48
2016-09-25T00:04:21.670Z,-48
2016-09-25T00:05:21.641Z,-48
2016-09-25T00:06:21.653Z,-48
2016-09-25T00:07:22.267Z,-48
2016-09-25T00:08:21.675Z,-48
2016-09-25T00:09:21.720Z,-48
2016-09-25T00:10:21.648Z,-48
2016-09-25T00:11:21.683Z,-48
2016-09-25T00:12:21.650Z,-48
2016-09-25T00:13:21.657Z,-47
2016-09-25T00:14:21.669Z,-46
2016-09-25T00:15:21.716Z,-49
2016-09-25T00:16:21.691Z,-48
2016-09-25T00:17:21.685Z,-48
2016-09-25T00:18:21.698Z,-47
2016-09-25T00:19:21.733Z,-49
2016-09-25T00:20:21.713Z,-48
2016-09-25T00:21:21.706Z,-48
2016-09-25T00:22:21.681Z,-49
2016-09-25T00:23:21.728Z,-49
2016-09-25T00:24:21.635Z,-49
2016-09-25T00:25:21.671Z,-48
2016-09-25T00:26:21.687Z,-48
2016-09-25T00:27:21.675Z,-49
2016-09-25T00:28:21.714Z,-49
2016-09-25T00:29:21.701Z,-48
2016-09-25T00:30:21.669Z,-48
2016-09-25T00:31:22.395Z,-47
2016-09-25T00:32:21.691Z,-46
2016-09-25T00:33:21.654Z,-48
2016-09-25T00:34:21.652Z,-48
2016-09-25T00:35:21.681Z,-49
2016-09-25T00:36:21.683Z,-48
2016-09-25T00:37:21.689Z,-51
2016-09-25T00:38:21.673Z,-50
2016-09-25T00:39:21.698Z,-50
2016-09-25T00:40:21.746Z,-50
2016-09-25T00:41:21.678Z,-50
2016-09-25T00:42:21.652Z,-49
2016-09-25T00:43:21.671Z,-50
2016-09-25T00:44:21.691Z,-50
2016-09-25T00:45:21.734Z,-50
2016-09-25T00:46:21.716Z,-49
2016-09-25T00:47:21.677Z,-50
2016-09-25T00:48:21.716Z,-49
2016-09-25T00:49:21.671Z,-50
2016-09-25T00:50:21.714Z,-50
2016-09-25T00:51:21.706Z,-50
2016-09-25T00:52:21.659Z,-51
2016-09-25T00:53:21.666Z,-50
2016-09-25T00:54:21.737Z,-50
2016-09-25T00:55:21.722Z,-49
2016-09-25T00:56:21.694Z,-48
2016-09-25T00:57:21.692Z,-50
2016-09-25T00:58:21.645Z,-48
2016-09-25T00:59:21.683Z,-48
2016-09-25T01:00:21.669Z,-48
2016-09-25T01:01:21.719Z,-48
2016-09-25T01:02:21.683Z,-47
2016-09-25T01:03:21.679Z,-47
2016-09-25T01:04:21.692Z,-47
2016-09-25T01:05:21.680Z,-47
2016-09-25T01:06:21.717Z,-47
2016-09-25T01:07:21.706Z,-47
2016-09-25T01:08:21.741Z,-50
2016-09-25T01:09:21.744Z,-51
2016-09-25T01:10:21.697Z,-50
2016-09-25T01:11:21.751Z,-50
2016-09-25T01:12:21.763Z,-50
2016-09-25T01:13:21.754Z,-48
2016-09-25T01:14:21.809Z,-48
2016-09-25T01:15:21.788Z,-49
2016-09-25T01:16:21.779Z,-48
2016-09-25T01:17:21.881Z,-50
2016-09-25T01:18:21.785Z,-51
2016-09-25T01:19:21.721Z,-49
2016-09-25T01:20:21.744Z,-48
2016-09-25T01:21:21.721Z,-48
2016-09-25T01:22:31.816Z,-48
2016-09-25T01:23:36.894Z,-48
2016-09-25T01:24:37.333Z,-47
2016-09-25T01:25:24.219Z,-48
2016-09-25T01:26:21.723Z,-48
2016-09-25T01:27:36.077Z,-48
2016-09-25T01:28:36.113Z,-49
2016-09-25T01:29:36.464Z,-50
2016-09-25T01:30:39.881Z,-47
2016-09-25T01:31:41.657Z,-47
2016-09-25T01:32:42.259Z,-47
2016-09-25T01:33:42.406Z,-46
2016-09-25T01:34:35.991Z,-49
2016-09-25T01:35:36.858Z,-48
2016-09-25T01:36:35.881Z,-48
2016-09-25T01:37:37.724Z,-49
2016-09-25T01:38:37.407Z,-49
2016-09-25T01:39:37.705Z,-49
2016-09-25T01:40:36.908Z,-48
2016-09-25T01:41:36.785Z,-49
2016-09-25T01:42:24.724Z,-47
2016-09-25T01:43:37.100Z,-49
2016-09-25T01:44:21.772Z,-50
2016-09-25T01:45:21.775Z,-50
2016-09-25T01:46:21.736Z,-49
2016-09-25T01:47:21.742Z,-47
2016-09-25T01:48:21.784Z,-50
2016-09-25T01:49:21.800Z,-50
2016-09-25T01:50:21.781Z,-50
2016-09-25T01:51:21.769Z,-48
2016-09-25T01:52:21.754Z,-48
2016-09-25T01:53:21.759Z,-48
2016-09-25T01:54:21.729Z,-48
2016-09-25T01:55:21.764Z,-49
2016-09-25T01:56:21.751Z,-46
2016-09-25T01:57:21.753Z,-46
2016-09-25T01:58:21.740Z,-46
2016-09-25T01:59:21.738Z,-46
2016-09-25T02:00:21.746Z,-48
2016-09-25T02:01:21.720Z,-49
2016-09-25T02:02:21.748Z,-46
2016-09-25T02:03:21.793Z,-47
2016-09-25T02:04:21.739Z,-46
2016-09-25T02:05:21.732Z,-47
2016-09-25T02:06:21.742Z,-46
2016-09-25T02:07:21.782Z,-47
2016-09-25T02:08:21.739Z,-46
2016-09-25T02:09:21.759Z,-46
2016-09-25T02:10:21.759Z,-46
2016-09-25T02:11:21.731Z,-46
2016-09-25T02:12:21.767Z,-47
2016-09-25T02:13:21.773Z,-47
2016-09-25T02:14:21.734Z,-47
2016-09-25T02:15:21.800Z,-48
2016-09-25T02:16:21.774Z,-48
2016-09-25T02:17:21.835Z,-48
2016-09-25T02:18:21.823Z,-49
2016-09-25T02:19:21.813Z,-49
2016-09-25T02:20:21.845Z,-48
2016-09-25T02:21:21.857Z,-48
2016-09-25T02:22:21.799Z,-48
2016-09-25T02:23:21.793Z,-48
2016-09-25T02:24:21.803Z,-48
2016-09-25T02:25:21.829Z,-48
2016-09-25T02:26:21.836Z,-48
2016-09-25T02:27:21.791Z,-49
2016-09-25T02:28:21.864Z,-49
2016-09-25T02:29:21.832Z,-46
2016-09-25T02:30:21.794Z,-49
2016-09-25T02:31:21.825Z,-49
2016-09-25T02:32:21.830Z,-47
2016-09-25T02:33:21.847Z,-47
2016-09-25T02:34:21.830Z,-46
2016-09-25T02:35:21.777Z,-47
2016-09-25T02:36:21.767Z,-47
2016-09-25T02:37:21.790Z,-48
2016-09-25T02:38:21.770Z,-48
2016-09-25T02:39:21.817Z,-48
2016-09-25T02:40:21.798Z,-48
2016-09-25T02:41:21.743Z,-46
2016-09-25T02:42:21.762Z,-47
2016-09-25T02:43:21.741Z,-46
2016-09-25T02:44:21.808Z,-46
2016-09-25T02:45:21.797Z,-48
2016-09-25T02:46:21.770Z,-48
2016-09-25T02:47:21.800Z,-47
2016-09-25T02:48:21.767Z,-47
2016-09-25T02:49:21.790Z,-46
2016-09-25T02:50:21.824Z,-46
2016-09-25T02:51:21.832Z,-46
2016-09-25T02:52:21.800Z,-46
2016-09-25T02:53:21.837Z,-46
2016-09-25T02:54:21.790Z,-47
2016-09-25T02:55:21.804Z,-46
2016-09-25T02:56:21.777Z,-47
2016-09-25T02:57:21.758Z,-46
2016-09-25T02:58:21.767Z,-46
2016-09-25T02:59:21.757Z,-46
2016-09-25T03:00:21.795Z,-46
2016-09-25T03:01:21.784Z,-46
2016-09-25T03:02:21.777Z,-44
2016-09-25T03:03:21.760Z,-47
2016-09-25T03:04:21.821Z,-46
2016-09-25T03:05:21.832Z,-49
2016-09-25T03:06:21.796Z,-49
2016-09-25T03:07:21.818Z,-48
2016-09-25T03:08:21.795Z,-49
2016-09-25T03:09:21.815Z,-49
2016-09-25T03:10:21.777Z,-49
2016-09-25T03:11:21.780Z,-49
2016-09-25T03:12:21.792Z,-49
2016-09-25T03:13:21.809Z,-47
2016-09-25T03:14:21.786Z,-48
2016-09-25T03:15:21.834Z,-49
2016-09-25T03:16:21.815Z,-48
2016-09-25T03:17:21.780Z,-48
2016-09-25T03:18:21.761Z,-48
2016-09-25T03:19:21.832Z,-47
2016-09-25T03:20:21.849Z,-48
2016-09-25T03:21:21.806Z,-48
2016-09-25T03:22:21.819Z,-47
2016-09-25T03:23:21.824Z,-48
2016-09-25T03:24:21.819Z,-47
2016-09-25T03:25:21.825Z,-49
2016-09-25T03:26:21.822Z,-49
2016-09-25T03:27:21.812Z,-48
2016-09-25T03:28:21.808Z,-48
2016-09-25T03:29:21.830Z,-48
2016-09-25T03:30:21.854Z,-48
2016-09-25T03:31:21.807Z,-49
2016-09-25T03:32:21.803Z,-46
2016-09-25T03:33:21.795Z,-46
2016-09-25T03:34:21.841Z,-46
2016-09-25T03:35:21.833Z,-45
2016-09-25T03:36:21.812Z,-46
2016-09-25T03:37:21.809Z,-46
2016-09-25T03:38:21.825Z,-46
2016-09-25T03:39:21.852Z,-47
2016-09-25T03:40:21.839Z,-44
2016-09-25T03:41:21.803Z,-47
2016-09-25T03:42:21.826Z,-46
2016-09-25T03:43:21.851Z,-46
2016-09-25T03:44:21.815Z,-46
2016-09-25T03:45:21.887Z,-48
2016-09-25T03:46:21.836Z,-49
2016-09-25T03:47:21.811Z,-50
2016-09-25T03:48:21.882Z,-51
2016-09-25T03:49:21.811Z,-50
2016-09-25T03:50:21.846Z,-49
2016-09-25T03:51:21.867Z,-50
2016-09-25T03:52:21.848Z,-51
2016-09-25T03:53:21.852Z,-51
2016-09-25T03:54:21.847Z,-49
2016-09-25T03:55:21.825Z,-50
2016-09-25T03:56:21.892Z,-48
2016-09-25T03:57:21.890Z,-48
2016-09-25T03:58:21.840Z,-48
2016-09-25T03:59:21.868Z,-48
2016-09-25T04:00:21.869Z,-48
2016-09-25T04:01:21.860Z,-48
2016-09-25T04:02:21.863Z,-49
2016-09-25T04:03:21.874Z,-47
2016-09-25T04:04:21.836Z,-48
2016-09-25T04:05:21.834Z,-48
2016-09-25T04:06:21.893Z,-48
2016-09-25T04:07:21.840Z,-48
2016-09-25T04:08:21.856Z,-48
2016-09-25T04:09:21.847Z,-48
2016-09-25T04:10:21.871Z,-48
2016-09-25T04:11:21.861Z,-48
2016-09-25T04:12:21.867Z,-48
2016-09-25T04:13:21.830Z,-48
2016-09-25T04:14:21.897Z,-49
2016-09-25T04:15:21.887Z,-46
2016-09-25T04:16:21.859Z,-46
2016-09-25T04:17:21.875Z,-46
2016-09-25T04:18:21.880Z,-46
2016-09-25T04:19:21.845Z,-46
2016-09-25T04:20:21.854Z,-46
2016-09-25T04:21:21.900Z,-46
2016-09-25T04:22:21.877Z,-46
2016-09-25T04:23:21.912Z,-47
2016-09-25T04:24:21.890Z,-47
2016-09-25T04:25:21.887Z,-47
2016-09-25T04:26:21.872Z,-47
2016-09-25T04:27:21.896Z,-47
2016-09-25T04:28:21.882Z,-50
2016-09-25T04:29:21.862Z,-50
2016-09-25T04:30:22.068Z,-48
2016-09-25T04:31:21.925Z,-50
2016-09-25T04:32:21.878Z,-51
2016-09-25T04:33:21.881Z,-49
2016-09-25T04:34:21.923Z,-50
2016-09-25T04:35:24.081Z,-48
2016-09-25T04:36:21.897Z,-47
2016-09-25T04:37:22.004Z,-48
2016-09-25T04:38:21.888Z,-50
2016-09-25T04:39:21.877Z,-47
2016-09-25T04:40:21.944Z,-50
2016-09-25T04:41:21.904Z,-50
2016-09-25T04:42:21.889Z,-50
2016-09-25T04:43:21.918Z,-49
2016-09-25T04:44:21.907Z,-50
2016-09-25T04:45:21.944Z,-49
2016-09-25T04:46:21.923Z,-47
2016-09-25T04:47:21.915Z,-49
2016-09-25T04:48:21.891Z,-48
2016-09-25T04:49:21.870Z,-47
2016-09-25T04:50:21.888Z,-47
2016-09-25T04:51:21.869Z,-48
2016-09-25T04:52:21.886Z,-47
2016-09-25T04:53:21.891Z,-50
2016-09-25T04:54:21.872Z,-50
2016-09-25T04:55:21.920Z,-50
2016-09-25T04:56:21.892Z,-50
2016-09-25T04:57:21.923Z,-50
2016-09-25T04:58:21.898Z,-51
2016-09-25T04:59:21.893Z,-50
2016-09-25T05:00:21.934Z,-49
2016-09-25T05:01:21.906Z,-50
2016-09-25T05:02:21.873Z,-50
2016-09-25T05:03:21.904Z,-50
2016-09-25T05:04:21.927Z,-49
2016-09-25T05:05:21.879Z,-50
2016-09-25T05:06:21.930Z,-48
2016-09-25T05:07:21.936Z,-47
2016-09-25T05:08:21.918Z,-47
2016-09-25T05:09:21.913Z,-47
2016-09-25T05:10:21.886Z,-48
2016-09-25T05:11:21.867Z,-48
2016-09-25T05:12:21.895Z,-48
2016-09-25T05:13:21.880Z,-48
2016-09-25T05:14:21.874Z,-47
2016-09-25T05:15:21.910Z,-47
2016-09-25T05:16:21.936Z,-50
2016-09-25T05:17:21.896Z,-50
2016-09-25T05:18:21.936Z,-50
2016-09-25T05:19:21.909Z,-50
2016-09-25T05:20:21.936Z,-50
2016-09-25T05:21:21.905Z,-47
2016-09-25T05:22:21.913Z,-47
2016-09-25T05:23:21.904Z,-47
2016-09-25T05:24:21.899Z,-48
2016-09-25T05:25:21.907Z,-48
2016-09-25T05:26:21.946Z,-47
2016-09-25T05:27:21.922Z,-47
2016-09-25T05:28:21.913Z,-48
2016-09-25T05:29:21.924Z,-47
2016-09-25T05:30:21.928Z,-50
2016-09-25T05:31:21.969Z,-50
2016-09-25T05:32:21.975Z,-50
2016-09-25T05:33:22.008Z,-50
2016-09-25T05:34:21.950Z,-49
2016-09-25T05:35:21.926Z,-50
2016-09-25T05:36:21.925Z,-47
2016-09-25T05:37:22.468Z,-46
2016-09-25T05:38:21.939Z,-47
2016-09-25T05:39:22.016Z,-49
2016-09-25T05:40:21.921Z,-49
2016-09-25T05:41:21.934Z,-47
2016-09-25T05:42:21.982Z,-47
2016-09-25T05:43:21.954Z,-47
2016-09-25T05:44:22.974Z,-50
2016-09-25T05:45:21.927Z,-49
2016-09-25T05:46:21.978Z,-50
2016-09-25T05:47:21.952Z,-49
2016-09-25T05:48:21.920Z,-49
2016-09-25T05:49:21.928Z,-49
2016-09-25T05:50:21.928Z,-48
2016-09-25T05:51:21.939Z,-48
2016-09-25T05:52:21.940Z,-50
2016-09-25T05:53:21.935Z,-50
2016-09-25T05:54:21.941Z,-49
2016-09-25T05:55:21.931Z,-50
2016-09-25T05:56:21.947Z,-49
2016-09-25T05:57:21.947Z,-49
2016-09-25T05:58:22.039Z,-49
2016-09-25T05:59:21.999Z,-49
2016-09-25T06:00:21.931Z,-49
2016-09-25T06:01:21.916Z,-49
2016-09-25T06:02:21.950Z,-48
2016-09-25T06:03:21.963Z,-48
2016-09-25T06:04:21.922Z,-48
2016-09-25T06:05:21.886Z,-49
2016-09-25T06:06:21.944Z,-47
2016-09-25T06:07:21.927Z,-44
2016-09-25T06:08:21.929Z,-46
2016-09-25T06:09:21.968Z,-46
2016-09-25T06:10:22.015Z,-46
2016-09-25T06:11:22.025Z,-48
2016-09-25T06:12:21.973Z,-48
2016-09-25T06:13:22.016Z,-47
2016-09-25T06:14:21.953Z,-49
2016-09-25T06:15:21.991Z,-48
2016-09-25T06:16:22.076Z,-48
2016-09-25T06:17:21.973Z,-46
2016-09-25T06:18:21.978Z,-46
2016-09-25T06:19:21.932Z,-49
2016-09-25T06:20:21.949Z,-48
2016-09-25T06:21:21.958Z,-48
2016-09-25T06:22:21.961Z,-48
2016-09-25T06:23:21.938Z,-46
2016-09-25T06:24:22.009Z,-47
2016-09-25T06:25:21.967Z,-48
2016-09-25T06:26:21.947Z,-48
2016-09-25T06:27:21.973Z,-48
2016-09-25T06:28:21.996Z,-47
2016-09-25T06:29:21.983Z,-50
2016-09-25T06:30:21.947Z,-50
2016-09-25T06:31:21.951Z,-47
2016-09-25T06:32:21.973Z,-50
2016-09-25T06:33:21.938Z,-50
2016-09-25T06:34:21.962Z,-47
2016-09-25T06:35:21.999Z,-50
2016-09-25T06:36:22.004Z,-50
2016-09-25T06:37:22.035Z,-50
2016-09-25T06:38:21.978Z,-50
2016-09-25T06:39:21.961Z,-49
2016-09-25T06:40:22.005Z,-50
2016-09-25T06:41:21.968Z,-51
2016-09-25T06:42:21.989Z,-48
2016-09-25T06:43:22.052Z,-48
2016-09-25T06:44:22.005Z,-48
2016-09-25T06:45:21.992Z,-48
2016-09-25T06:46:21.982Z,-48
2016-09-25T06:47:21.994Z,-46
2016-09-25T06:48:22.175Z,-48
2016-09-25T06:49:21.968Z,-48
2016-09-25T06:50:21.973Z,-49
2016-09-25T06:51:21.937Z,-45
2016-09-25T06:52:21.987Z,-48
2016-09-25T06:53:22.086Z,-48
2016-09-25T06:54:22.052Z,-47
2016-09-25T06:55:21.987Z,-47
2016-09-25T06:56:21.997Z,-48
2016-09-25T06:57:21.990Z,-47
2016-09-25T06:58:22.086Z,-50
2016-09-25T06:59:21.980Z,-50
2016-09-25T07:00:21.991Z,-49
2016-09-25T07:01:21.965Z,-50
2016-09-25T07:02:21.989Z,-50
2016-09-25T07:03:21.959Z,-50
2016-09-25T07:04:22.014Z,-50
2016-09-25T07:05:21.992Z,-50
2016-09-25T07:06:21.974Z,-50
2016-09-25T07:07:22.619Z,-48
2016-09-25T07:08:22.044Z,-50
2016-09-25T07:09:22.019Z,-50
2016-09-25T07:10:21.983Z,-49
2016-09-25T07:11:21.973Z,-50
2016-09-25T07:12:22.045Z,-49
2016-09-25T07:13:22.062Z,-49
2016-09-25T07:14:21.977Z,-50
2016-09-25T07:15:21.972Z,-49
2016-09-25T07:16:22.009Z,-50
2016-09-25T07:17:22.015Z,-50
2016-09-25T07:18:21.987Z,-51
2016-09-25T07:19:22.012Z,-50
2016-09-25T07:20:22.002Z,-50
2016-09-25T07:21:21.996Z,-50
2016-09-25T07:22:22.015Z,-50
2016-09-25T07:23:22.012Z,-49
2016-09-25T07:24:22.015Z,-50
2016-09-25T07:25:22.005Z,-51
2016-09-25T07:26:22.023Z,-50
2016-09-25T07:27:22.026Z,-50
2016-09-25T07:28:22.058Z,-46
2016-09-25T07:29:22.006Z,-48
2016-09-25T07:30:22.022Z,-47
2016-09-25T07:31:22.038Z,-48
2016-09-25T07:32:22.061Z,-50
2016-09-25T07:33:22.102Z,-48
2016-09-25T07:34:21.989Z,-48
2016-09-25T07:35:22.080Z,-48
2016-09-25T07:36:22.014Z,-48
2016-09-25T07:37:22.013Z,-49
2016-09-25T07:38:22.063Z,-48
2016-09-25T07:39:22.096Z,-49
2016-09-25T07:40:22.051Z,-48
2016-09-25T07:41:22.056Z,-46
2016-09-25T07:42:22.114Z,-48
2016-09-25T07:43:22.593Z,-48
2016-09-25T07:44:22.014Z,-48
2016-09-25T07:45:22.039Z,-48
2016-09-25T07:46:22.037Z,-48
2016-09-25T07:47:22.094Z,-49
2016-09-25T07:48:22.025Z,-48
2016-09-25T07:49:22.019Z,-47
2016-09-25T07:50:22.061Z,-50
2016-09-25T07:51:22.068Z,-49
2016-09-25T07:52:22.029Z,-47
2016-09-25T07:53:22.043Z,-47
2016-09-25T07:54:22.007Z,-47
2016-09-25T07:55:22.066Z,-50
2016-09-25T07:56:22.049Z,-48
2016-09-25T07:57:22.004Z,-46
2016-09-25T07:58:22.055Z,-49
2016-09-25T07:59:22.063Z,-48
2016-09-25T08:00:22.013Z,-48
2016-09-25T08:01:22.164Z,-48
2016-09-25T08:02:22.094Z,-48
2016-09-25T08:03:22.109Z,-46
2016-09-25T08:04:23.429Z,-48
2016-09-25T08:05:22.121Z,-50
2016-09-25T08:06:22.039Z,-50
2016-09-25T08:07:22.044Z,-50
2016-09-25T08:08:22.235Z,-47
2016-09-25T08:09:22.674Z,-48
2016-09-25T08:10:22.073Z,-48
2016-09-25T08:11:22.253Z,-48
2016-09-25T08:12:22.052Z,-48
2016-09-25T08:13:22.067Z,-48
2016-09-25T08:14:22.109Z,-48
2016-09-25T08:15:22.049Z,-48
2016-09-25T08:16:22.017Z,-49
2016-09-25T08:17:22.051Z,-50
2016-09-25T08:18:22.059Z,-49
2016-09-25T08:19:22.089Z,-51
2016-09-25T08:20:22.064Z,-47
2016-09-25T08:21:22.079Z,-49
2016-09-25T08:22:22.058Z,-49
2016-09-25T08:23:22.048Z,-48
2016-09-25T08:24:22.048Z,-46
2016-09-25T08:25:22.067Z,-49
2016-09-25T08:26:22.057Z,-48
2016-09-25T08:27:22.038Z,-49
2016-09-25T08:28:22.051Z,-47
2016-09-25T08:29:22.059Z,-47
2016-09-25T08:30:22.074Z,-47
2016-09-25T08:31:22.093Z,-51
2016-09-25T08:32:22.217Z,-50
2016-09-25T08:33:22.106Z,-48
2016-09-25T08:34:22.070Z,-49
2016-09-25T08:35:22.122Z,-49
2016-09-25T08:36:22.058Z,-50
2016-09-25T08:37:22.023Z,-53
2016-09-25T08:38:22.109Z,-54
2016-09-25T08:39:22.090Z,-55
2016-09-25T08:40:22.080Z,-55
2016-09-25T08:41:22.113Z,-54
2016-09-25T08:42:22.081Z,-53
2016-09-25T08:43:22.119Z,-55
2016-09-25T08:44:22.149Z,-53
2016-09-25T08:45:22.179Z,-56
2016-09-25T08:46:22.081Z,-55
2016-09-25T08:47:22.765Z,-55
2016-09-25T08:48:22.113Z,-55
2016-09-25T08:49:22.088Z,-54
2016-09-25T08:50:22.078Z,-53
2016-09-25T08:51:22.077Z,-51
2016-09-25T08:52:22.124Z,-51
2016-09-25T08:53:22.074Z,-50
2016-09-25T08:54:22.080Z,-55
2016-09-25T08:55:22.054Z,-54
2016-09-25T08:56:22.083Z,-54
2016-09-25T08:57:22.039Z,-50
2016-09-25T08:58:22.091Z,-48
2016-09-25T08:59:22.081Z,-50
2016-09-25T09:00:22.044Z,-51
2016-09-25T09:01:22.168Z,-52
2016-09-25T09:02:22.054Z,-51
2016-09-25T09:03:22.063Z,-52
2016-09-25T09:04:22.089Z,-54
2016-09-25T09:05:22.074Z,-52
2016-09-25T09:06:22.103Z,-52
2016-09-25T09:07:22.104Z,-52
2016-09-25T09:08:22.083Z,-52
2016-09-25T09:09:22.174Z,-52
2016-09-25T09:10:22.111Z,-54
2016-09-25T09:11:22.046Z,-51
2016-09-25T09:12:22.078Z,-55
2016-09-25T09:13:22.055Z,-56
2016-09-25T09:14:22.088Z,-53
2016-09-25T09:15:22.071Z,-55
2016-09-25T09:16:22.066Z,-50
2016-09-25T09:17:22.102Z,-49
2016-09-25T09:18:22.130Z,-50
2016-09-25T09:19:22.091Z,-48
2016-09-25T09:20:22.119Z,-50
2016-09-25T09:21:22.091Z,-49
2016-09-25T09:22:22.098Z,-51
2016-09-25T09:23:22.104Z,-49
2016-09-25T09:24:22.126Z,-50
2016-09-25T09:25:22.103Z,-49
2016-09-25T09:26:22.589Z,-51
2016-09-25T09:27:22.107Z,-51
2016-09-25T09:28:22.091Z,-49
2016-09-25T09:29:22.264Z,-52
2016-09-25T09:30:22.395Z,-51
2016-09-25T09:31:22.126Z,-49
2016-09-25T09:32:22.120Z,-49
2016-09-25T09:33:22.122Z,-49
2016-09-25T09:34:22.106Z,-49
2016-09-25T09:35:22.137Z,-50
2016-09-25T09:36:22.134Z,-50
2016-09-25T09:37:22.139Z,-48
2016-09-25T09:38:22.113Z,-48
2016-09-25T09:39:22.170Z,-49
2016-09-25T09:40:22.131Z,-49
2016-09-25T09:41:22.280Z,-51
2016-09-25T09:42:22.156Z,-51
2016-09-25T09:43:22.227Z,-49
2016-09-25T09:44:22.152Z,-49
2016-09-25T09:45:22.144Z,-48
2016-09-25T09:46:22.114Z,-46
2016-09-25T09:47:22.121Z,-48
2016-09-25T09:48:22.168Z,-48
2016-09-25T09:49:22.123Z,-48
2016-09-25T09:50:22.129Z,-48
2016-09-25T09:51:22.163Z,-49
2016-09-25T09:52:22.137Z,-49
2016-09-25T09:53:22.155Z,-46
2016-09-25T09:54:22.176Z,-48
2016-09-25T09:55:22.197Z,-49
2016-09-25T09:56:22.136Z,-50
2016-09-25T09:57:22.157Z,-51
2016-09-25T09:58:22.180Z,-50
2016-09-25T09:59:22.287Z,-50
2016-09-25T10:00:22.190Z,-51
2016-09-25T10:01:22.219Z,-49
2016-09-25T10:02:22.225Z,-48
2016-09-25T10:03:22.215Z,-53
2016-09-25T10:04:22.200Z,-50
2016-09-25T10:05:22.145Z,-52
2016-09-25T10:06:22.120Z,-51
2016-09-25T10:07:22.177Z,-52
2016-09-25T10:08:22.180Z,-51
2016-09-25T10:09:22.200Z,-54
2016-09-25T10:10:22.177Z,-48
2016-09-25T10:11:22.171Z,-52
2016-09-25T10:12:22.189Z,-49
2016-09-25T10:13:22.218Z,-51
2016-09-25T10:14:22.220Z,-50
2016-09-25T10:15:22.190Z,-52
2016-09-25T10:16:22.204Z,-52
2016-09-25T10:17:22.212Z,-52
2016-09-25T10:18:22.183Z,-52
2016-09-25T10:19:22.209Z,-53
2016-09-25T10:20:22.220Z,-52
2016-09-25T10:21:22.196Z,-52
2016-09-25T10:22:22.180Z,-52
2016-09-25T10:23:22.192Z,-52
2016-09-25T10:24:22.301Z,-52
2016-09-25T10:25:22.233Z,-52
2016-09-25T10:26:22.196Z,-52
2016-09-25T10:27:22.272Z,-50
2016-09-25T10:28:22.229Z,-51
2016-09-25T10:29:22.247Z,-53
2016-09-25T10:30:22.195Z,-52
2016-09-25T10:31:22.254Z,-51
2016-09-25T10:32:22.223Z,-51
2016-09-25T10:33:22.238Z,-51
2016-09-25T10:34:22.222Z,-50
2016-09-25T10:35:22.181Z,-51
2016-09-25T10:36:22.218Z,-51
2016-09-25T10:37:22.205Z,-51
2016-09-25T10:38:22.253Z,-50
2016-09-25T10:39:22.209Z,-49
2016-09-25T10:40:22.298Z,-50
2016-09-25T10:41:22.254Z,-49
2016-09-25T10:42:22.229Z,-49
2016-09-25T10:43:22.190Z,-50
2016-09-25T10:44:22.237Z,-51
2016-09-25T10:45:22.271Z,-53
2016-09-25T10:46:22.234Z,-53
2016-09-25T10:47:22.241Z,-52
2016-09-25T10:48:22.205Z,-51
2016-09-25T10:49:22.228Z,-52
2016-09-25T10:50:22.200Z,-52
2016-09-25T10:51:22.211Z,-50
2016-09-25T10:52:22.205Z,-52
2016-09-25T10:53:22.246Z,-51
2016-09-25T10:54:22.216Z,-52
2016-09-25T10:55:22.251Z,-51
2016-09-25T10:56:22.244Z,-53
2016-09-25T10:57:22.236Z,-52
2016-09-25T10:58:22.202Z,-50
2016-09-25T10:59:22.234Z,-52
2016-09-25T11:00:22.271Z,-50
2016-09-25T11:01:22.673Z,-53
2016-09-25T11:02:22.264Z,-51
2016-09-25T11:03:22.240Z,-52
2016-09-25T11:04:22.223Z,-52
2016-09-25T11:05:22.247Z,-51
2016-09-25T11:06:22.237Z,-51
2016-09-25T11:07:22.196Z,-52
2016-09-25T11:08:22.231Z,-51
2016-09-25T11:09:22.224Z,-52
2016-09-25T11:10:22.270Z,-53
2016-09-25T11:11:22.246Z,-52
2016-09-25T11:12:22.224Z,-51
2016-09-25T11:13:22.190Z,-52
2016-09-25T11:14:22.209Z,-51
2016-09-25T11:15:22.378Z,-50
2016-09-25T11:16:22.259Z,-51
2016-09-25T11:17:22.317Z,-51
2016-09-25T11:18:22.248Z,-52
2016-09-25T11:19:22.271Z,-51
2016-09-25T11:20:22.232Z,-51
2016-09-25T11:21:22.190Z,-52
2016-09-25T11:22:22.229Z,-52
2016-09-25T11:23:22.239Z,-52
2016-09-25T11:24:22.228Z,-52
2016-09-25T11:25:22.253Z,-52
2016-09-25T11:26:22.211Z,-51
2016-09-25T11:27:22.233Z,-52
2016-09-25T11:28:22.342Z,-52
2016-09-25T11:29:22.276Z,-52
2016-09-25T11:30:22.257Z,-52
2016-09-25T11:31:22.274Z,-52
2016-09-25T11:32:22.268Z,-52
2016-09-25T11:33:22.312Z,-52
2016-09-25T11:34:22.263Z,-53
2016-09-25T11:35:22.280Z,-52
2016-09-25T11:36:22.310Z,-52
2016-09-25T11:37:22.244Z,-52
2016-09-25T11:38:22.280Z,-52
2016-09-25T11:39:22.254Z,-52
2016-09-25T11:40:22.321Z,-51
2016-09-25T11:41:22.234Z,-51
2016-09-25T11:42:22.225Z,-52
2016-09-25T11:43:22.244Z,-52
2016-09-25T11:44:22.241Z,-52
2016-09-25T11:45:22.249Z,-53
2016-09-25T11:46:22.275Z,-52
2016-09-25T11:47:22.264Z,-51
2016-09-25T11:48:22.260Z,-53
2016-09-25T11:49:22.213Z,-53
2016-09-25T11:50:22.253Z,-52
2016-09-25T11:51:22.257Z,-52
2016-09-25T11:52:22.259Z,-51
2016-09-25T11:53:22.260Z,-51
2016-09-25T11:54:22.322Z,-51
2016-09-25T11:55:22.287Z,-52
2016-09-25T11:56:22.290Z,-51
2016-09-25T11:57:22.333Z,-52
2016-09-25T11:58:22.241Z,-51
2016-09-25T11:59:22.243Z,-52
2016-09-25T12:00:22.288Z,-49
2016-09-25T12:01:22.292Z,-54
2016-09-25T12:02:22.285Z,-52
2016-09-25T12:03:22.280Z,-53
2016-09-25T12:04:22.287Z,-53
2016-09-25T12:05:22.304Z,-52
2016-09-25T12:06:22.326Z,-51
2016-09-25T12:07:22.292Z,-54
2016-09-25T12:08:22.315Z,-51
2016-09-25T12:09:22.308Z,-51
2016-09-25T12:10:22.346Z,-52
2016-09-25T12:11:22.315Z,-52
2016-09-25T12:12:22.444Z,-51
2016-09-25T12:13:22.315Z,-50
2016-09-25T12:14:22.321Z,-52
2016-09-25T12:15:22.253Z,-52
2016-09-25T12:16:22.333Z,-51
2016-09-25T12:17:22.389Z,-51
2016-09-25T12:18:22.292Z,-51
2016-09-25T12:19:22.343Z,-52
2016-09-25T12:20:22.360Z,-52
2016-09-25T12:21:22.278Z,-53
2016-09-25T12:22:22.345Z,-52
2016-09-25T12:23:22.323Z,-51
2016-09-25T12:24:22.350Z,-51
2016-09-25T12:25:22.333Z,-51
2016-09-25T12:26:22.361Z,-51
2016-09-25T12:27:22.334Z,-52
2016-09-25T12:28:22.298Z,-52
2016-09-25T12:29:22.320Z,-53
2016-09-25T12:30:22.487Z,-52
2016-09-25T12:31:22.399Z,-51
2016-09-25T12:32:22.323Z,-50
2016-09-25T12:33:22.327Z,-51
2016-09-25T12:34:22.305Z,-51
2016-09-25T12:35:22.351Z,-53
2016-09-25T12:36:22.314Z,-53
2016-09-25T12:37:22.348Z,-52
2016-09-25T12:38:22.299Z,-53
2016-09-25T12:39:22.334Z,-53
2016-09-25T12:40:22.327Z,-51
2016-09-25T12:41:22.392Z,-52
2016-09-25T12:42:22.310Z,-52
2016-09-25T12:43:22.302Z,-53
2016-09-25T12:44:22.318Z,-52
2016-09-25T12:45:22.390Z,-49
2016-09-25T12:46:22.355Z,-50
2016-09-25T12:47:22.379Z,-53
2016-09-25T12:48:22.415Z,-53
2016-09-25T12:49:22.343Z,-53
2016-09-25T12:50:22.338Z,-53
2016-09-25T12:51:22.388Z,-53
2016-09-25T12:52:22.332Z,-51
2016-09-25T12:53:22.342Z,-52
2016-09-25T12:54:22.346Z,-52
2016-09-25T12:55:22.370Z,-53
2016-09-25T12:56:22.348Z,-52
2016-09-25T12:57:22.348Z,-50
2016-09-25T12:58:22.367Z,-51
2016-09-25T12:59:22.349Z,-51
2016-09-25T13:00:22.388Z,-50
2016-09-25T13:01:22.424Z,-52
2016-09-25T13:02:22.343Z,-52
2016-09-25T13:03:22.401Z,-52
2016-09-25T13:04:22.374Z,-51
2016-09-25T13:05:22.330Z,-53
2016-09-25T13:06:22.409Z,-50
2016-09-25T13:07:22.325Z,-51
2016-09-25T13:08:22.402Z,-52
2016-09-25T13:09:22.386Z,-51
2016-09-25T13:10:22.423Z,-52
2016-09-25T13:11:22.414Z,-51
2016-09-25T13:12:22.346Z,-51
2016-09-25T13:13:22.327Z,-52
2016-09-25T13:14:22.419Z,-49
2016-09-25T13:15:22.359Z,-51
2016-09-25T13:16:22.408Z,-52
2016-09-25T13:17:22.428Z,-51
2016-09-25T13:18:22.419Z,-51
2016-09-25T13:19:22.362Z,-51
2016-09-25T13:20:22.354Z,-51
2016-09-25T13:21:22.388Z,-51
2016-09-25T13:22:22.359Z,-51
2016-09-25T13:23:22.378Z,-52
2016-09-25T13:24:22.481Z,-51
2016-09-25T13:25:22.325Z,-51
2016-09-25T13:26:22.360Z,-52
2016-09-25T13:27:22.334Z,-57
2016-09-25T13:28:22.398Z,-57
2016-09-25T13:29:22.944Z,-58
2016-09-25T13:30:22.420Z,-56
2016-09-25T13:31:22.443Z,-57
2016-09-25T13:32:22.374Z,-55
2016-09-25T13:33:22.656Z,-57
2016-09-25T13:34:22.386Z,-54
2016-09-25T13:35:22.815Z,-56
2016-09-25T13:36:22.721Z,-57
2016-09-25T13:37:22.510Z,-56
2016-09-25T13:38:22.390Z,-56
2016-09-25T13:39:22.399Z,-57
2016-09-25T13:40:22.387Z,-56
2016-09-25T13:41:22.442Z,-57
2016-09-25T13:42:22.385Z,-57
2016-09-25T13:43:22.399Z,-56
2016-09-25T13:44:22.452Z,-57
2016-09-25T13:45:22.366Z,-57
2016-09-25T13:46:22.432Z,-57